sensor_id;sensor_type;location;lat;lon;timestamp;pressure;altitude;pressure_sealevel;temperature;humidity
36304;BME280;22335;49.800;8.596;2023-07-31T00:02:41;100373.06;;;22.34;48.71
36304;BME280;22335;49.800;8.596;2023-07-31T00:09:24;100373.88;;;22.35;48.91
36304;BME280;22335;49.800;8.596;2023-07-31T00:16:09;100323.53;;;22.08;49.10
36304;BME280;22335;49.800;8.596;2023-07-31T00:22:53;100347.41;;;22.25;48.85
36304;BME280;22335;49.800;8.596;2023-07-31T00:29:36;100369.53;;;22.37;48.90
36304;BME280;22335;49.800;8.596;2023-07-31T00:36:21;100358.03;;;22.39;48.78
36304;BME280;22335;49.800;8.596;2023-07-31T00:43:04;100367.56;;;22.38;48.55
36304;BME280;22335;49.800;8.596;2023-07-31T00:49:49;100351.22;;;22.36;48.62
36304;BME280;22335;49.800;8.596;2023-07-31T00:56:34;100348.44;;;22.36;48.55
36304;BME280;22335;49.800;8.596;2023-07-31T01:03:18;100336.38;;;22.32;48.41
36304;BME280;22335;49.800;8.596;2023-07-31T01:10:04;100332.00;;;22.31;48.70
36304;BME280;22335;49.800;8.596;2023-07-31T01:16:52;100328.41;;;22.30;48.43
36304;BME280;22335;49.800;8.596;2023-07-31T01:23:51;100291.56;;;22.02;48.52
36304;BME280;22335;49.800;8.596;2023-07-31T01:30:44;100309.56;;;22.24;48.47
36304;BME280;22335;49.800;8.596;2023-07-31T01:37:30;100332.53;;;22.37;48.59
36304;BME280;22335;49.800;8.596;2023-07-31T01:44:14;100342.94;;;22.40;48.66
36304;BME280;22335;49.800;8.596;2023-07-31T01:51:01;100324.81;;;22.49;48.63
36304;BME280;22335;49.800;8.596;2023-07-31T01:57:45;100259.09;;;22.09;48.48
36304;BME280;22335;49.800;8.596;2023-07-31T02:04:30;100299.59;;;22.42;48.83
36304;BME280;22335;49.800;8.596;2023-07-31T02:11:14;100242.25;;;22.02;49.17
36304;BME280;22335;49.800;8.596;2023-07-31T02:17:58;100297.25;;;22.25;49.11
36304;BME280;22335;49.800;8.596;2023-07-31T02:24:42;100296.59;;;22.31;49.38
36304;BME280;22335;49.800;8.596;2023-07-31T02:31:27;100275.16;;;22.36;49.35
36304;BME280;22335;49.800;8.596;2023-07-31T02:38:10;100275.63;;;22.18;49.54
36304;BME280;22335;49.800;8.596;2023-07-31T02:44:55;100272.16;;;22.05;50.02
36304;BME280;22335;49.800;8.596;2023-07-31T03:06:42;100276.09;;;21.66;50.63
36304;BME280;22335;49.800;8.596;2023-07-31T03:13:25;100289.03;;;21.58;51.09
36304;BME280;22335;49.800;8.596;2023-07-31T03:20:10;100281.22;;;21.63;51.33
36304;BME280;22335;49.800;8.596;2023-07-31T03:26:55;100283.53;;;21.77;51.73
36304;BME280;22335;49.800;8.596;2023-07-31T03:33:41;100285.84;;;21.75;51.54
36304;BME280;22335;49.800;8.596;2023-07-31T03:40:24;100281.88;;;21.76;52.05
36304;BME280;22335;49.800;8.596;2023-07-31T03:47:09;100275.00;;;21.70;52.19
36304;BME280;22335;49.800;8.596;2023-07-31T03:53:52;100177.88;;;20.94;52.38
36304;BME280;22335;49.800;8.596;2023-07-31T04:00:36;100279.09;;;21.57;52.47
36304;BME280;22335;49.800;8.596;2023-07-31T04:07:21;100259.06;;;21.51;52.48
36304;BME280;22335;49.800;8.596;2023-07-31T04:14:05;100278.09;;;21.49;52.35
36304;BME280;22335;49.800;8.596;2023-07-31T04:20:48;100282.06;;;21.48;52.45
36304;BME280;22335;49.800;8.596;2023-07-31T04:27:33;100262.22;;;21.50;52.32
36304;BME280;22335;49.800;8.596;2023-07-31T04:34:19;100256.81;;;21.57;52.13
36304;BME280;22335;49.800;8.596;2023-07-31T04:41:17;100270.28;;;21.55;52.04
36304;BME280;22335;49.800;8.596;2023-07-31T04:48:02;100191.91;;;21.17;52.19
36304;BME280;22335;49.800;8.596;2023-07-31T04:54:46;100263.19;;;21.57;52.22
36304;BME280;22335;49.800;8.596;2023-07-31T05:01:30;100250.53;;;21.60;52.02
36304;BME280;22335;49.800;8.596;2023-07-31T05:08:15;100248.31;;;21.50;52.12
36304;BME280;22335;49.800;8.596;2023-07-31T05:14:59;100244.94;;;21.40;52.12
36304;BME280;22335;49.800;8.596;2023-07-31T05:21:43;100175.84;;;20.91;52.21
36304;BME280;22335;49.800;8.596;2023-07-31T05:28:28;100232.72;;;21.29;52.20
36304;BME280;22335;49.800;8.596;2023-07-31T05:35:12;100213.31;;;20.98;52.50
36304;BME280;22335;49.800;8.596;2023-07-31T05:41:55;100247.16;;;21.35;52.37
36304;BME280;22335;49.800;8.596;2023-07-31T05:48:40;100225.16;;;21.46;52.54
36304;BME280;22335;49.800;8.596;2023-07-31T05:55:23;100237.25;;;21.53;52.37
36304;BME280;22335;49.800;8.596;2023-07-31T06:02:08;100242.44;;;21.55;52.26
36304;BME280;22335;49.800;8.596;2023-07-31T06:08:53;100234.47;;;21.53;52.24
36304;BME280;22335;49.800;8.596;2023-07-31T06:15:37;100227.28;;;21.52;52.24
36304;BME280;22335;49.800;8.596;2023-07-31T06:22:20;100218.59;;;21.54;52.32
36304;BME280;22335;49.800;8.596;2023-07-31T06:29:06;100206.88;;;21.64;52.28
36304;BME280;22335;49.800;8.596;2023-07-31T06:35:50;100227.91;;;21.81;52.26
36304;BME280;22335;49.800;8.596;2023-07-31T06:42:34;100217.19;;;22.02;52.00
36304;BME280;22335;49.800;8.596;2023-07-31T06:49:19;100216.47;;;22.05;51.65
36304;BME280;22335;49.800;8.596;2023-07-31T06:56:02;100229.22;;;22.06;51.74
36304;BME280;22335;49.800;8.596;2023-07-31T07:02:46;100228.81;;;22.08;51.89
36304;BME280;22335;49.800;8.596;2023-07-31T07:09:31;100220.19;;;22.13;52.20
36304;BME280;22335;49.800;8.596;2023-07-31T07:16:14;100222.25;;;22.16;51.96
36304;BME280;22335;49.800;8.596;2023-07-31T07:22:58;100213.72;;;22.28;51.94
36304;BME280;22335;49.800;8.596;2023-07-31T07:29:43;100190.75;;;22.35;52.10
36304;BME280;22335;49.800;8.596;2023-07-31T07:36:27;100192.00;;;22.38;51.88
36304;BME280;22335;49.800;8.596;2023-07-31T07:43:11;100193.59;;;22.39;51.83
36304;BME280;22335;49.800;8.596;2023-07-31T07:49:55;100183.47;;;22.50;52.46
36304;BME280;22335;49.800;8.596;2023-07-31T07:56:39;100137.88;;;22.39;52.15
36304;BME280;22335;49.800;8.596;2023-07-31T08:03:23;100181.47;;;22.73;52.20
36304;BME280;22335;49.800;8.596;2023-07-31T08:10:08;100161.03;;;22.92;52.06
36304;BME280;22335;49.800;8.596;2023-07-31T08:16:52;100169.31;;;23.12;51.98
36304;BME280;22335;49.800;8.596;2023-07-31T08:23:35;100166.78;;;23.30;51.49
36304;BME280;22335;49.800;8.596;2023-07-31T08:30:20;100132.19;;;23.38;51.62
36304;BME280;22335;49.800;8.596;2023-07-31T08:37:04;100134.22;;;23.41;51.47
36304;BME280;22335;49.800;8.596;2023-07-31T08:43:49;100111.94;;;23.44;51.05
36304;BME280;22335;49.800;8.596;2023-07-31T08:50:34;100122.00;;;23.53;51.63
36304;BME280;22335;49.800;8.596;2023-07-31T08:57:19;100124.22;;;23.70;51.38
36304;BME280;22335;49.800;8.596;2023-07-31T09:04:04;100119.66;;;23.88;51.26
36304;BME280;22335;49.800;8.596;2023-07-31T09:10:49;100120.09;;;23.94;50.36
36304;BME280;22335;49.800;8.596;2023-07-31T09:17:34;100122.94;;;23.98;50.79
36304;BME280;22335;49.800;8.596;2023-07-31T09:24:24;100116.31;;;24.16;50.79
36304;BME280;22335;49.800;8.596;2023-07-31T09:31:10;100114.69;;;24.56;50.58
36304;BME280;22335;49.800;8.596;2023-07-31T09:37:55;100095.63;;;24.76;50.04
36304;BME280;22335;49.800;8.596;2023-07-31T09:44:40;100079.81;;;25.05;49.83
36304;BME280;22335;49.800;8.596;2023-07-31T09:51:27;100071.88;;;25.15;48.69
36304;BME280;22335;49.800;8.596;2023-07-31T09:58:13;99999.38;;;24.81;49.44
36304;BME280;22335;49.800;8.596;2023-07-31T10:04:57;100073.53;;;25.23;49.66
36304;BME280;22335;49.800;8.596;2023-07-31T10:11:48;100047.16;;;25.35;48.99
36304;BME280;22335;49.800;8.596;2023-07-31T10:18:35;100054.00;;;25.51;48.84
36304;BME280;22335;49.800;8.596;2023-07-31T10:25:19;100030.81;;;25.54;48.75
36304;BME280;22335;49.800;8.596;2023-07-31T10:32:05;100034.44;;;25.66;48.37
36304;BME280;22335;49.800;8.596;2023-07-31T10:38:51;100038.50;;;25.86;48.28
36304;BME280;22335;49.800;8.596;2023-07-31T10:45:37;100035.72;;;25.93;47.53
36304;BME280;22335;49.800;8.596;2023-07-31T10:52:23;100035.72;;;25.93;47.38
36304;BME280;22335;49.800;8.596;2023-07-31T10:59:08;100040.53;;;26.14;47.28
36304;BME280;22335;49.800;8.596;2023-07-31T11:06:00;99968.47;;;25.93;45.79
36304;BME280;22335;49.800;8.596;2023-07-31T11:12:46;100033.69;;;26.30;45.89
36304;BME280;22335;49.800;8.596;2023-07-31T11:19:30;100034.13;;;26.17;46.01
36304;BME280;22335;49.800;8.596;2023-07-31T11:26:14;100036.09;;;26.03;46.17
36304;BME280;22335;49.800;8.596;2023-07-31T11:33:00;100019.69;;;25.97;46.61
36304;BME280;22335;49.800;8.596;2023-07-31T11:39:58;100038.88;;;25.92;46.81
36304;BME280;22335;49.800;8.596;2023-07-31T11:46:42;100017.69;;;26.09;47.41
36304;BME280;22335;49.800;8.596;2023-07-31T11:53:30;100002.47;;;26.10;47.10
36304;BME280;22335;49.800;8.596;2023-07-31T12:00:16;99965.22;;;25.81;47.28
36304;BME280;22335;49.800;8.596;2023-07-31T12:07:00;99990.88;;;25.86;47.48
36304;BME280;22335;49.800;8.596;2023-07-31T12:13:45;99973.66;;;25.88;47.44
36304;BME280;22335;49.800;8.596;2023-07-31T12:20:29;99972.84;;;25.87;47.22
36304;BME280;22335;49.800;8.596;2023-07-31T12:27:14;99960.03;;;25.75;47.20
36304;BME280;22335;49.800;8.596;2023-07-31T12:34:01;99952.03;;;25.77;47.27
36304;BME280;22335;49.800;8.596;2023-07-31T12:40:44;99949.22;;;25.74;47.10
36304;BME280;22335;49.800;8.596;2023-07-31T12:47:28;99949.63;;;25.72;46.69
36304;BME280;22335;49.800;8.596;2023-07-31T12:54:13;99924.81;;;25.71;46.43
36304;BME280;22335;49.800;8.596;2023-07-31T13:00:56;99928.00;;;25.69;46.63
36304;BME280;22335;49.800;8.596;2023-07-31T13:07:40;99927.22;;;25.87;46.87
36304;BME280;22335;49.800;8.596;2023-07-31T13:14:25;99907.97;;;26.14;46.72
36304;BME280;22335;49.800;8.596;2023-07-31T13:21:08;99915.16;;;26.18;46.36
36304;BME280;22335;49.800;8.596;2023-07-31T13:27:52;99915.13;;;26.36;45.98
36304;BME280;22335;49.800;8.596;2023-07-31T13:34:36;99903.50;;;26.34;46.14
36304;BME280;22335;49.800;8.596;2023-07-31T13:41:20;99910.72;;;26.32;46.10
36304;BME280;22335;49.800;8.596;2023-07-31T13:48:04;99814.34;;;25.90;46.00
36304;BME280;22335;49.800;8.596;2023-07-31T13:54:48;99893.53;;;26.30;46.14
36304;BME280;22335;49.800;8.596;2023-07-31T14:01:32;99861.94;;;26.08;45.79
36304;BME280;22335;49.800;8.596;2023-07-31T14:08:15;99901.06;;;26.43;45.52
36304;BME280;22335;49.800;8.596;2023-07-31T14:15:00;99871.41;;;26.46;45.66
36304;BME280;22335;49.800;8.596;2023-07-31T14:21:44;99871.81;;;26.41;45.93
36304;BME280;22335;49.800;8.596;2023-07-31T14:28:32;99816.75;;;25.98;45.97
36304;BME280;22335;49.800;8.596;2023-07-31T14:35:16;99861.84;;;26.36;45.42
36304;BME280;22335;49.800;8.596;2023-07-31T14:42:00;99869.03;;;26.41;45.07
36304;BME280;22335;49.800;8.596;2023-07-31T14:48:43;99843.00;;;26.40;45.37
36304;BME280;22335;49.800;8.596;2023-07-31T14:55:28;99838.59;;;26.39;44.95
36304;BME280;22335;49.800;8.596;2023-07-31T15:02:12;99843.00;;;26.37;44.81
36304;BME280;22335;49.800;8.596;2023-07-31T15:08:55;99837.00;;;26.35;44.86
36304;BME280;22335;49.800;8.596;2023-07-31T15:15:40;99840.59;;;26.39;44.78
36304;BME280;22335;49.800;8.596;2023-07-31T15:22:24;99851.81;;;26.39;44.74
36304;BME280;22335;49.800;8.596;2023-07-31T15:29:08;99785.84;;;26.09;44.75
36304;BME280;22335;49.800;8.596;2023-07-31T15:35:55;99840.16;;;26.48;45.00
36304;BME280;22335;49.800;8.596;2023-07-31T15:42:39;99844.59;;;26.38;45.35
36304;BME280;22335;49.800;8.596;2023-07-31T15:49:23;99833.00;;;26.32;44.52
36304;BME280;22335;49.800;8.596;2023-07-31T15:56:07;99846.59;;;26.52;44.34
36304;BME280;22335;49.800;8.596;2023-07-31T16:02:51;99840.56;;;26.53;43.79
36304;BME280;22335;49.800;8.596;2023-07-31T16:09:34;99808.63;;;26.22;43.73
36304;BME280;22335;49.800;8.596;2023-07-31T16:16:19;99826.94;;;26.52;43.88
36304;BME280;22335;49.800;8.596;2023-07-31T16:23:03;99833.75;;;26.54;44.53
36304;BME280;22335;49.800;8.596;2023-07-31T16:29:48;99828.56;;;26.49;44.71
36304;BME280;22335;49.800;8.596;2023-07-31T16:36:33;99810.94;;;26.49;45.82
36304;BME280;22335;49.800;8.596;2023-07-31T16:43:16;99829.38;;;26.35;46.35
36304;BME280;22335;49.800;8.596;2023-07-31T16:50:00;99743.09;;;25.76;47.61
36304;BME280;22335;49.800;8.596;2023-07-31T16:56:45;99795.81;;;26.21;48.65
36304;BME280;22335;49.800;8.596;2023-07-31T17:03:38;99781.03;;;26.13;49.93
36304;BME280;22335;49.800;8.596;2023-07-31T17:10:21;99783.78;;;26.24;50.62
36304;BME280;22335;49.800;8.596;2023-07-31T17:17:06;99759.44;;;26.14;50.77
36304;BME280;22335;49.800;8.596;2023-07-31T17:23:50;99744.25;;;26.01;51.07
36304;BME280;22335;49.800;8.596;2023-07-31T17:30:37;99763.84;;;26.04;51.79
36304;BME280;22335;49.800;8.596;2023-07-31T17:37:21;99769.81;;;26.20;52.16
36304;BME280;22335;49.800;8.596;2023-07-31T17:44:05;99753.41;;;26.15;52.01
36304;BME280;22335;49.800;8.596;2023-07-31T17:50:49;99764.53;;;26.26;52.34
36304;BME280;22335;49.800;8.596;2023-07-31T17:57:35;99748.53;;;26.23;52.56
36304;BME280;22335;49.800;8.596;2023-07-31T18:04:18;99726.31;;;25.80;52.92
36304;BME280;22335;49.800;8.596;2023-07-31T18:11:03;99701.63;;;25.36;53.35
36304;BME280;22335;49.800;8.596;2023-07-31T18:17:47;99707.28;;;24.96;53.95
36304;BME280;22335;49.800;8.596;2023-07-31T18:24:31;99710.84;;;24.47;54.57
36304;BME280;22335;49.800;8.596;2023-07-31T18:31:14;99711.19;;;24.38;55.05
36304;BME280;22335;49.800;8.596;2023-07-31T18:37:59;99720.75;;;24.30;56.05
36304;BME280;22335;49.800;8.596;2023-07-31T18:44:42;99729.91;;;24.23;55.80
36304;BME280;22335;49.800;8.596;2023-07-31T18:51:26;99717.16;;;24.22;55.99
36304;BME280;22335;49.800;8.596;2023-07-31T18:58:11;99715.16;;;24.19;55.90
36304;BME280;22335;49.800;8.596;2023-07-31T19:04:54;99720.72;;;24.15;55.88
36304;BME280;22335;49.800;8.596;2023-07-31T19:11:38;99733.50;;;24.16;55.44
36304;BME280;22335;49.800;8.596;2023-07-31T19:18:24;99720.69;;;24.12;55.80
36304;BME280;22335;49.800;8.596;2023-07-31T19:25:08;99705.91;;;23.97;55.62
36304;BME280;22335;49.800;8.596;2023-07-31T19:31:51;99720.25;;;23.88;55.50
36304;BME280;22335;49.800;8.596;2023-07-31T19:38:36;99699.84;;;23.81;55.61
36304;BME280;22335;49.800;8.596;2023-07-31T19:45:20;99705.72;;;23.61;55.71
36304;BME280;22335;49.800;8.596;2023-07-31T19:52:03;99708.44;;;23.47;56.31
36304;BME280;22335;49.800;8.596;2023-07-31T19:58:48;99683.63;;;23.35;56.47
36304;BME280;22335;49.800;8.596;2023-07-31T20:05:32;99691.94;;;23.20;56.58
36304;BME280;22335;49.800;8.596;2023-07-31T20:12:18;99673.09;;;23.03;55.90
36304;BME280;22335;49.800;8.596;2023-07-31T20:19:03;99648.31;;;22.94;56.75
36304;BME280;22335;49.800;8.596;2023-07-31T20:25:47;99678.56;;;22.89;57.45
36304;BME280;22335;49.800;8.596;2023-07-31T20:32:31;99670.97;;;22.86;57.90
36304;BME280;22335;49.800;8.596;2023-07-31T20:39:16;99604.94;;;22.45;59.04
36304;BME280;22335;49.800;8.596;2023-07-31T20:45:59;99628.09;;;22.53;59.83
36304;BME280;22335;49.800;8.596;2023-07-31T20:52:43;99582.06;;;22.22;61.17
36304;BME280;22335;49.800;8.596;2023-07-31T20:59:28;99541.63;;;21.98;62.08
36304;BME280;22335;49.800;8.596;2023-07-31T21:06:11;99604.19;;;22.11;62.92
36304;BME280;22335;49.800;8.596;2023-07-31T21:12:57;99600.09;;;21.98;63.68
36304;BME280;22335;49.800;8.596;2023-07-31T21:19:43;99582.09;;;21.88;64.68
36304;BME280;22335;49.800;8.596;2023-07-31T21:26:27;99564.94;;;21.82;65.06
36304;BME280;22335;49.800;8.596;2023-07-31T21:33:11;99563.19;;;21.67;65.84
36304;BME280;22335;49.800;8.596;2023-07-31T21:39:55;99526.06;;;21.52;66.88
36304;BME280;22335;49.800;8.596;2023-07-31T21:46:39;99508.97;;;21.50;66.97
36304;BME280;22335;49.800;8.596;2023-07-31T21:53:22;99488.72;;;21.53;67.34
36304;BME280;22335;49.800;8.596;2023-07-31T22:00:08;99471.19;;;21.49;67.56
36304;BME280;22335;49.800;8.596;2023-07-31T22:06:53;99479.91;;;21.48;67.68
36304;BME280;22335;49.800;8.596;2023-07-31T22:13:36;99474.81;;;21.53;67.94
36304;BME280;22335;49.800;8.596;2023-07-31T22:20:21;99468.13;;;21.61;68.01
36304;BME280;22335;49.800;8.596;2023-07-31T22:27:05;99435.88;;;21.57;67.94
36304;BME280;22335;49.800;8.596;2023-07-31T22:33:49;99446.75;;;21.73;67.98
36304;BME280;22335;49.800;8.596;2023-07-31T22:40:34;99435.59;;;21.69;68.55
36304;BME280;22335;49.800;8.596;2023-07-31T22:47:18;99422.03;;;21.64;68.76
36304;BME280;22335;49.800;8.596;2023-07-31T22:54:01;99407.25;;;21.56;69.36
36304;BME280;22335;49.800;8.596;2023-07-31T23:00:46;99387.38;;;21.54;69.86
36304;BME280;22335;49.800;8.596;2023-07-31T23:07:29;99363.84;;;21.45;70.17
36304;BME280;22335;49.800;8.596;2023-07-31T23:14:13;99364.63;;;21.45;70.84
36304;BME280;22335;49.800;8.596;2023-07-31T23:20:58;99330.34;;;21.34;71.40
36304;BME280;22335;49.800;8.596;2023-07-31T23:27:41;99314.38;;;21.27;71.79
36304;BME280;22335;49.800;8.596;2023-07-31T23:34:25;99314.75;;;21.22;72.26
36304;BME280;22335;49.800;8.596;2023-07-31T23:41:11;99304.00;;;21.21;72.61
36304;BME280;22335;49.800;8.596;2023-07-31T23:47:54;99314.66;;;21.15;72.86
36304;BME280;22335;49.800;8.596;2023-07-31T23:54:38;99284.47;;;21.10;73.15
